Aérodrome :
LOGIN :

S'inscrire | Disclaimer

   EN    FR    IT 

 










Légende :    VFR   VFR Marginal   IFR   IFR Intensif   IFR Très Intensif
Visi : 
Plafond : 
>= 8 km
>= 3000ft
5 à 8 km
1000 à 3000 ft
1500m à 5 km
500 à 1000 ft
800 à 1500m
200 à 500 ft
< 800m
< 200 ft
Symboles :   Orages  Brouillard  Fortes neiges  Fortes précipitations  Vent > 20 kt
SIGMETs :   Divers  Orages  Givrage  Turbulence  Onde Orograph.  Cendres Volcan.







- Altitude de l'aérodrome : 39 ft


ETNH - Hohn AB

DERNIER METAR :
  • 231439Z 12003KT 6000 SCT005 SCT010 BKN030 12/11 Q1014 WHT WHT TEMPO GRN

METARs EXPIRÉS :
  • 231420Z 13005KT 4500 BR SCT005 SCT010 BKN030 12/10 Q1014 GRN GRN TEMPO YLO
  • 231339Z 11004KT 4500 BR SCT005 BKN030 12/11 Q1013 GRN GRN TEMPO YLO
  • 231333Z VRB03KT 2000 -DZ BR SCT005 BKN030 12/11 Q1013 YLO GRN TEMPO YLO
  • 231320Z 13004KT 4500 BR SCT005 SCT015 BKN030 12/11 Q1013 GRN GRN TEMPO YLO
  • 231220Z 12005KT 4000 BR SCT005 SCT010 BKN020 12/11 Q1012 REDZ GRN GRN TEMPO YLO
  • 231149Z 14005KT 3200 -DZ BR FEW005 SCT010 BKN020 12/11 Q1012 REDZ YLO GRN TEMPO YLO

TAF AMD TAF ETNH
Valide du 23 à 14h jusqu'au 23 à 23h UTC


231440Z 2314/2323 15006KT 6000 BR SCT005 BKN025
TEMPO 2314/2317 10008KT 4000 -SHRA SCT005 BKN010
BECMG 2318/2320 05005KT 3000 BR SCT005 BKN015
TEMPO 2317/2323 08003KT 2000 BR BKN006 OVC010 BY ETGL
Pas de NOTAMs connus pour ce terrain.



MET'MAP, la Météo Aéronautique d'un coup d'oeil ! - Copyright ORBIFLY Décembre 2007 - Disclaimer

ORBIFLY MET'MAP TEAM :

Programmation & Développement : Alexandra Zaïnal
Conception & Développement : Baudouin d'Aumeries
Co-Programmation & Développement : Marc-Olivier Méhu
Soutien technique & logistique : Manuel Goepfert

Contact : metmap@orbifly.com




SOURCES & CREDITS :

   NOAA